sensor_id;sensor_type;location;lat;lon;timestamp;P1;durP1;ratioP1;P2;durP2;ratioP2
62056;SDS011;48016;50.284;18.860;2023-04-01T00:00:56;13.50;;;9.60;;
62056;SDS011;48016;50.284;18.860;2023-04-01T00:03:24;14.60;;;9.90;;
62056;SDS011;48016;50.284;18.860;2023-04-01T00:05:55;14.80;;;9.80;;
62056;SDS011;48016;50.284;18.860;2023-04-01T00:08:23;11.10;;;7.80;;
62056;SDS011;48016;50.284;18.860;2023-04-01T00:10:49;12.70;;;8.10;;
62056;SDS011;48016;50.284;18.860;2023-04-01T00:13:15;10.00;;;6.60;;
62056;SDS011;48016;50.284;18.860;2023-04-01T00:15:41;10.30;;;6.70;;
62056;SDS011;48016;50.284;18.860;2023-04-01T00:18:08;12.30;;;7.90;;
62056;SDS011;48016;50.284;18.860;2023-04-01T00:20:34;11.20;;;6.90;;
62056;SDS011;48016;50.284;18.860;2023-04-01T00:23:00;11.80;;;7.20;;
62056;SDS011;48016;50.284;18.860;2023-04-01T00:25:26;16.80;;;9.10;;
62056;SDS011;48016;50.284;18.860;2023-04-01T00:27:52;14.40;;;8.10;;
62056;SDS011;48016;50.284;18.860;2023-04-01T00:30:18;13.20;;;8.00;;
62056;SDS011;48016;50.284;18.860;2023-04-01T00:32:44;13.20;;;7.40;;
62056;SDS011;48016;50.284;18.860;2023-04-01T00:35:11;14.00;;;8.70;;
62056;SDS011;48016;50.284;18.860;2023-04-01T00:37:38;11.60;;;7.60;;
62056;SDS011;48016;50.284;18.860;2023-04-01T00:40:05;15.30;;;10.10;;
62056;SDS011;48016;50.284;18.860;2023-04-01T00:42:33;21.30;;;11.00;;
62056;SDS011;48016;50.284;18.860;2023-04-01T00:45:21;16.40;;;11.30;;
62056;SDS011;48016;50.284;18.860;2023-04-01T00:47:56;14.90;;;10.20;;
62056;SDS011;48016;50.284;18.860;2023-04-01T00:50:27;17.50;;;10.20;;
62056;SDS011;48016;50.284;18.860;2023-04-01T00:52:56;16.80;;;10.30;;
62056;SDS011;48016;50.284;18.860;2023-04-01T00:55:23;18.10;;;10.50;;
62056;SDS011;48016;50.284;18.860;2023-04-01T00:57:50;18.20;;;10.00;;
62056;SDS011;48016;50.284;18.860;2023-04-01T01:00:19;16.70;;;10.10;;
62056;SDS011;48016;50.284;18.860;2023-04-01T01:05:15;14.80;;;9.70;;
62056;SDS011;48016;50.284;18.860;2023-04-01T01:15:44;17.40;;;10.40;;
62056;SDS011;48016;50.284;18.860;2023-04-01T01:31:37;13.50;;;8.10;;
62056;SDS011;48016;50.284;18.860;2023-04-01T01:37:10;14.90;;;9.20;;
62056;SDS011;48016;50.284;18.860;2023-04-01T01:39:40;17.60;;;10.00;;
62056;SDS011;48016;50.284;18.860;2023-04-01T01:42:11;17.80;;;10.50;;
62056;SDS011;48016;50.284;18.860;2023-04-01T01:44:40;16.90;;;10.30;;
62056;SDS011;48016;50.284;18.860;2023-04-01T01:47:10;20.00;;;11.10;;
62056;SDS011;48016;50.284;18.860;2023-04-01T01:49:37;17.60;;;11.30;;
62056;SDS011;48016;50.284;18.860;2023-04-01T01:52:06;19.40;;;12.20;;
62056;SDS011;48016;50.284;18.860;2023-04-01T01:54:31;19.20;;;11.60;;
62056;SDS011;48016;50.284;18.860;2023-04-01T01:57:05;18.20;;;11.70;;
62056;SDS011;48016;50.284;18.860;2023-04-01T01:59:35;16.30;;;9.80;;
62056;SDS011;48016;50.284;18.860;2023-04-01T02:02:05;16.10;;;10.80;;
62056;SDS011;48016;50.284;18.860;2023-04-01T02:04:34;16.20;;;10.90;;
62056;SDS011;48016;50.284;18.860;2023-04-01T02:07:06;18.90;;;12.30;;
62056;SDS011;48016;50.284;18.860;2023-04-01T02:09:36;16.90;;;12.20;;
62056;SDS011;48016;50.284;18.860;2023-04-01T02:12:04;20.20;;;14.20;;
62056;SDS011;48016;50.284;18.860;2023-04-01T02:17:09;18.50;;;14.90;;
62056;SDS011;48016;50.284;18.860;2023-04-01T02:19:39;18.00;;;13.40;;
62056;SDS011;48016;50.284;18.860;2023-04-01T02:22:10;18.40;;;13.80;;
62056;SDS011;48016;50.284;18.860;2023-04-01T02:24:40;19.30;;;13.50;;
62056;SDS011;48016;50.284;18.860;2023-04-01T02:27:08;21.20;;;14.70;;
62056;SDS011;48016;50.284;18.860;2023-04-01T02:29:35;18.20;;;13.90;;
62056;SDS011;48016;50.284;18.860;2023-04-01T02:32:02;19.30;;;14.40;;
62056;SDS011;48016;50.284;18.860;2023-04-01T02:34:28;20.90;;;15.40;;
62056;SDS011;48016;50.284;18.860;2023-04-01T02:36:55;22.00;;;16.20;;
62056;SDS011;48016;50.284;18.860;2023-04-01T02:39:21;18.90;;;15.80;;
62056;SDS011;48016;50.284;18.860;2023-04-01T02:41:48;25.20;;;17.70;;
62056;SDS011;48016;50.284;18.860;2023-04-01T02:44:14;21.90;;;16.80;;
62056;SDS011;48016;50.284;18.860;2023-04-01T02:46:41;19.70;;;15.70;;
62056;SDS011;48016;50.284;18.860;2023-04-01T02:49:07;19.40;;;14.10;;
62056;SDS011;48016;50.284;18.860;2023-04-01T02:51:33;20.90;;;15.20;;
62056;SDS011;48016;50.284;18.860;2023-04-01T02:54:00;18.60;;;14.30;;
62056;SDS011;48016;50.284;18.860;2023-04-01T02:56:26;23.50;;;16.40;;
62056;SDS011;48016;50.284;18.860;2023-04-01T02:58:53;18.60;;;13.60;;
62056;SDS011;48016;50.284;18.860;2023-04-01T03:01:19;16.80;;;11.40;;
62056;SDS011;48016;50.284;18.860;2023-04-01T03:03:46;17.90;;;10.80;;
62056;SDS011;48016;50.284;18.860;2023-04-01T03:06:13;13.80;;;9.20;;
62056;SDS011;48016;50.284;18.860;2023-04-01T03:08:43;12.40;;;8.80;;
62056;SDS011;48016;50.284;18.860;2023-04-01T03:11:10;15.70;;;10.80;;
62056;SDS011;48016;50.284;18.860;2023-04-01T03:13:40;15.10;;;11.10;;
62056;SDS011;48016;50.284;18.860;2023-04-01T03:16:06;17.00;;;12.40;;
62056;SDS011;48016;50.284;18.860;2023-04-01T03:18:32;17.50;;;12.00;;
62056;SDS011;48016;50.284;18.860;2023-04-01T03:21:11;15.00;;;10.70;;
62056;SDS011;48016;50.284;18.860;2023-04-01T03:23:45;15.30;;;9.20;;
62056;SDS011;48016;50.284;18.860;2023-04-01T03:26:11;13.50;;;8.60;;
62056;SDS011;48016;50.284;18.860;2023-04-01T03:28:37;13.60;;;8.80;;
62056;SDS011;48016;50.284;18.860;2023-04-01T03:31:03;16.10;;;11.40;;
62056;SDS011;48016;50.284;18.860;2023-04-01T03:33:29;13.80;;;10.30;;
62056;SDS011;48016;50.284;18.860;2023-04-01T03:35:55;16.20;;;11.30;;
62056;SDS011;48016;50.284;18.860;2023-04-01T03:38:21;14.40;;;11.60;;
62056;SDS011;48016;50.284;18.860;2023-04-01T03:40:47;18.60;;;13.60;;
62056;SDS011;48016;50.284;18.860;2023-04-01T03:43:13;20.10;;;12.90;;
62056;SDS011;48016;50.284;18.860;2023-04-01T03:45:46;20.00;;;15.30;;
62056;SDS011;48016;50.284;18.860;2023-04-01T03:48:16;19.30;;;13.90;;
62056;SDS011;48016;50.284;18.860;2023-04-01T03:50:42;15.50;;;11.10;;
62056;SDS011;48016;50.284;18.860;2023-04-01T03:53:08;16.80;;;11.30;;
62056;SDS011;48016;50.284;18.860;2023-04-01T03:55:35;18.40;;;11.60;;
62056;SDS011;48016;50.284;18.860;2023-04-01T03:58:02;16.40;;;10.60;;
62056;SDS011;48016;50.284;18.860;2023-04-01T04:00:28;16.30;;;10.60;;
62056;SDS011;48016;50.284;18.860;2023-04-01T04:02:55;13.70;;;10.60;;
62056;SDS011;48016;50.284;18.860;2023-04-01T04:05:22;18.10;;;12.50;;
62056;SDS011;48016;50.284;18.860;2023-04-01T04:07:49;16.40;;;11.90;;
62056;SDS011;48016;50.284;18.860;2023-04-01T04:10:15;19.00;;;11.20;;
62056;SDS011;48016;50.284;18.860;2023-04-01T04:12:41;16.90;;;9.90;;
62056;SDS011;48016;50.284;18.860;2023-04-01T04:15:08;15.50;;;10.30;;
62056;SDS011;48016;50.284;18.860;2023-04-01T04:17:34;14.60;;;10.10;;
62056;SDS011;48016;50.284;18.860;2023-04-01T04:20:00;17.10;;;10.80;;
62056;SDS011;48016;50.284;18.860;2023-04-01T04:22:26;17.90;;;11.80;;
62056;SDS011;48016;50.284;18.860;2023-04-01T04:24:53;14.90;;;12.50;;
62056;SDS011;48016;50.284;18.860;2023-04-01T04:27:19;16.00;;;13.30;;
62056;SDS011;48016;50.284;18.860;2023-04-01T04:29:45;19.40;;;14.90;;
62056;SDS011;48016;50.284;18.860;2023-04-01T04:32:11;16.60;;;13.30;;
62056;SDS011;48016;50.284;18.860;2023-04-01T04:34:37;18.40;;;13.20;;
62056;SDS011;48016;50.284;18.860;2023-04-01T04:37:03;15.40;;;11.90;;
62056;SDS011;48016;50.284;18.860;2023-04-01T04:39:29;14.50;;;11.30;;
62056;SDS011;48016;50.284;18.860;2023-04-01T04:41:55;15.30;;;10.70;;
62056;SDS011;48016;50.284;18.860;2023-04-01T04:44:21;12.30;;;9.70;;
62056;SDS011;48016;50.284;18.860;2023-04-01T04:46:47;12.30;;;9.10;;
62056;SDS011;48016;50.284;18.860;2023-04-01T04:49:13;10.90;;;8.00;;
62056;SDS011;48016;50.284;18.860;2023-04-01T04:51:39;13.40;;;7.90;;
62056;SDS011;48016;50.284;18.860;2023-04-01T04:54:06;10.60;;;7.20;;
62056;SDS011;48016;50.284;18.860;2023-04-01T04:56:32;9.90;;;7.00;;
62056;SDS011;48016;50.284;18.860;2023-04-01T04:58:58;9.70;;;6.30;;
62056;SDS011;48016;50.284;18.860;2023-04-01T05:01:25;11.40;;;6.30;;
62056;SDS011;48016;50.284;18.860;2023-04-01T05:03:51;9.00;;;6.60;;
62056;SDS011;48016;50.284;18.860;2023-04-01T05:06:17;10.80;;;6.70;;
62056;SDS011;48016;50.284;18.860;2023-04-01T05:08:44;10.60;;;7.20;;
62056;SDS011;48016;50.284;18.860;2023-04-01T05:11:14;11.10;;;6.20;;
62056;SDS011;48016;50.284;18.860;2023-04-01T05:13:42;10.90;;;6.30;;
62056;SDS011;48016;50.284;18.860;2023-04-01T05:16:09;10.60;;;5.90;;
62056;SDS011;48016;50.284;18.860;2023-04-01T05:18:36;11.50;;;6.70;;
62056;SDS011;48016;50.284;18.860;2023-04-01T05:21:03;10.60;;;7.20;;
62056;SDS011;48016;50.284;18.860;2023-04-01T05:23:30;9.80;;;6.60;;
62056;SDS011;48016;50.284;18.860;2023-04-01T05:26:04;10.10;;;5.90;;
62056;SDS011;48016;50.284;18.860;2023-04-01T05:28:35;8.80;;;5.80;;
62056;SDS011;48016;50.284;18.860;2023-04-01T05:31:01;10.90;;;6.90;;
62056;SDS011;48016;50.284;18.860;2023-04-01T05:33:29;14.60;;;7.30;;
62056;SDS011;48016;50.284;18.860;2023-04-01T05:35:55;11.10;;;6.40;;
62056;SDS011;48016;50.284;18.860;2023-04-01T05:38:22;9.50;;;6.50;;
62056;SDS011;48016;50.284;18.860;2023-04-01T05:40:48;9.50;;;7.40;;
62056;SDS011;48016;50.284;18.860;2023-04-01T05:43:14;10.80;;;6.00;;
62056;SDS011;48016;50.284;18.860;2023-04-01T05:45:40;10.70;;;6.90;;
62056;SDS011;48016;50.284;18.860;2023-04-01T05:48:06;9.40;;;5.90;;
62056;SDS011;48016;50.284;18.860;2023-04-01T05:50:32;12.00;;;5.70;;
62056;SDS011;48016;50.284;18.860;2023-04-01T05:52:58;11.90;;;6.80;;
62056;SDS011;48016;50.284;18.860;2023-04-01T05:55:24;11.80;;;7.30;;
62056;SDS011;48016;50.284;18.860;2023-04-01T05:57:50;11.20;;;6.30;;
62056;SDS011;48016;50.284;18.860;2023-04-01T06:00:16;9.50;;;6.30;;
62056;SDS011;48016;50.284;18.860;2023-04-01T06:02:43;12.20;;;6.40;;
62056;SDS011;48016;50.284;18.860;2023-04-01T06:05:11;9.40;;;6.10;;
62056;SDS011;48016;50.284;18.860;2023-04-01T06:07:39;12.20;;;6.40;;
62056;SDS011;48016;50.284;18.860;2023-04-01T06:10:15;9.90;;;6.70;;
62056;SDS011;48016;50.284;18.860;2023-04-01T06:12:59;13.70;;;8.70;;
62056;SDS011;48016;50.284;18.860;2023-04-01T06:15:40;17.70;;;10.60;;
62056;SDS011;48016;50.284;18.860;2023-04-01T06:21:01;23.00;;;13.90;;
62056;SDS011;48016;50.284;18.860;2023-04-01T06:24:03;19.80;;;11.60;;
62056;SDS011;48016;50.284;18.860;2023-04-01T06:43:41;14.80;;;9.90;;
62056;SDS011;48016;50.284;18.860;2023-04-01T06:46:06;14.90;;;9.30;;
62056;SDS011;48016;50.284;18.860;2023-04-01T06:51:31;15.90;;;9.10;;
62056;SDS011;48016;50.284;18.860;2023-04-01T06:56:42;15.00;;;9.30;;
62056;SDS011;48016;50.284;18.860;2023-04-01T06:59:15;13.90;;;9.70;;
62056;SDS011;48016;50.284;18.860;2023-04-01T07:01:52;13.80;;;7.60;;
62056;SDS011;48016;50.284;18.860;2023-04-01T07:06:56;10.10;;;6.20;;
62056;SDS011;48016;50.284;18.860;2023-04-01T07:09:31;13.80;;;8.00;;
62056;SDS011;48016;50.284;18.860;2023-04-01T07:12:02;11.00;;;6.70;;
62056;SDS011;48016;50.284;18.860;2023-04-01T07:14:36;10.30;;;6.00;;
62056;SDS011;48016;50.284;18.860;2023-04-01T07:17:08;14.20;;;7.00;;
62056;SDS011;48016;50.284;18.860;2023-04-01T07:27:40;11.60;;;6.90;;
62056;SDS011;48016;50.284;18.860;2023-04-01T07:30:13;15.20;;;7.50;;
62056;SDS011;48016;50.284;18.860;2023-04-01T07:32:51;10.30;;;6.40;;
62056;SDS011;48016;50.284;18.860;2023-04-01T07:35:38;13.10;;;7.30;;
62056;SDS011;48016;50.284;18.860;2023-04-01T07:41:28;12.90;;;7.40;;
62056;SDS011;48016;50.284;18.860;2023-04-01T07:44:05;13.40;;;8.20;;
62056;SDS011;48016;50.284;18.860;2023-04-01T07:55:31;11.10;;;7.50;;
62056;SDS011;48016;50.284;18.860;2023-04-01T08:06:41;9.90;;;6.10;;
62056;SDS011;48016;50.284;18.860;2023-04-01T08:09:26;9.60;;;5.70;;
62056;SDS011;48016;50.284;18.860;2023-04-01T08:25:37;8.00;;;4.50;;
62056;SDS011;48016;50.284;18.860;2023-04-01T08:28:21;7.20;;;4.20;;
62056;SDS011;48016;50.284;18.860;2023-04-01T08:31:05;5.80;;;4.30;;
62056;SDS011;48016;50.284;18.860;2023-04-01T08:33:32;6.10;;;4.00;;
62056;SDS011;48016;50.284;18.860;2023-04-01T08:36:02;7.10;;;4.50;;
62056;SDS011;48016;50.284;18.860;2023-04-01T08:49:42;7.70;;;4.70;;
62056;SDS011;48016;50.284;18.860;2023-04-01T08:52:37;6.40;;;4.00;;
62056;SDS011;48016;50.284;18.860;2023-04-01T09:17:05;6.40;;;4.00;;
62056;SDS011;48016;50.284;18.860;2023-04-01T09:19:56;4.30;;;3.50;;
62056;SDS011;48016;50.284;18.860;2023-04-01T09:25:27;6.10;;;4.20;;
62056;SDS011;48016;50.284;18.860;2023-04-01T09:28:18;5.70;;;3.50;;
62056;SDS011;48016;50.284;18.860;2023-04-01T09:36:37;5.30;;;2.70;;
62056;SDS011;48016;50.284;18.860;2023-04-01T09:45:52;4.80;;;2.60;;
62056;SDS011;48016;50.284;18.860;2023-04-01T09:50:48;3.50;;;2.10;;
62056;SDS011;48016;50.284;18.860;2023-04-01T10:10:39;5.20;;;2.40;;
62056;SDS011;48016;50.284;18.860;2023-04-01T10:33:14;4.10;;;2.40;;
62056;SDS011;48016;50.284;18.860;2023-04-01T10:41:43;5.30;;;2.90;;
62056;SDS011;48016;50.284;18.860;2023-04-01T10:47:26;3.20;;;2.60;;
62056;SDS011;48016;50.284;18.860;2023-04-01T11:32:43;3.90;;;2.30;;
62056;SDS011;48016;50.284;18.860;2023-04-01T11:38:18;4.70;;;2.70;;
62056;SDS011;48016;50.284;18.860;2023-04-01T11:41:07;4.50;;;2.70;;
62056;SDS011;48016;50.284;18.860;2023-04-01T11:52:29;5.80;;;2.80;;
62056;SDS011;48016;50.284;18.860;2023-04-01T11:58:17;5.90;;;3.10;;
62056;SDS011;48016;50.284;18.860;2023-04-01T12:20:10;5.60;;;3.20;;
62056;SDS011;48016;50.284;18.860;2023-04-01T12:22:46;5.50;;;2.70;;
62056;SDS011;48016;50.284;18.860;2023-04-01T12:36:43;3.00;;;2.00;;
62056;SDS011;48016;50.284;18.860;2023-04-01T12:42:14;3.90;;;2.30;;
62056;SDS011;48016;50.284;18.860;2023-04-01T12:59:58;3.50;;;1.90;;
62056;SDS011;48016;50.284;18.860;2023-04-01T13:26:55;4.10;;;2.40;;
62056;SDS011;48016;50.284;18.860;2023-04-01T13:32:20;5.20;;;2.70;;
62056;SDS011;48016;50.284;18.860;2023-04-01T13:34:53;4.30;;;2.10;;
62056;SDS011;48016;50.284;18.860;2023-04-01T13:39:59;6.00;;;2.10;;
62056;SDS011;48016;50.284;18.860;2023-04-01T13:42:39;2.50;;;1.60;;
62056;SDS011;48016;50.284;18.860;2023-04-01T13:45:13;4.10;;;1.90;;
62056;SDS011;48016;50.284;18.860;2023-04-01T13:50:34;5.50;;;2.90;;
62056;SDS011;48016;50.284;18.860;2023-04-01T14:15:01;12.90;;;4.80;;
62056;SDS011;48016;50.284;18.860;2023-04-01T14:23:42;8.80;;;5.20;;
62056;SDS011;48016;50.284;18.860;2023-04-01T14:28:54;7.20;;;3.80;;
62056;SDS011;48016;50.284;18.860;2023-04-01T14:48:15;4.20;;;2.60;;
62056;SDS011;48016;50.284;18.860;2023-04-01T14:51:03;4.20;;;2.90;;
62056;SDS011;48016;50.284;18.860;2023-04-01T14:53:36;9.10;;;3.00;;
62056;SDS011;48016;50.284;18.860;2023-04-01T14:56:10;4.20;;;3.00;;
62056;SDS011;48016;50.284;18.860;2023-04-01T14:58:44;6.70;;;3.70;;
62056;SDS011;48016;50.284;18.860;2023-04-01T15:09:17;4.60;;;2.80;;
62056;SDS011;48016;50.284;18.860;2023-04-01T15:17:16;3.30;;;1.90;;
62056;SDS011;48016;50.284;18.860;2023-04-01T15:31:34;3.90;;;2.30;;
62056;SDS011;48016;50.284;18.860;2023-04-01T15:49:03;7.20;;;3.40;;
62056;SDS011;48016;50.284;18.860;2023-04-01T15:54:04;9.40;;;5.50;;
62056;SDS011;48016;50.284;18.860;2023-04-01T15:56:59;10.70;;;5.50;;
62056;SDS011;48016;50.284;18.860;2023-04-01T16:25:39;9.00;;;3.80;;
62056;SDS011;48016;50.284;18.860;2023-04-01T16:28:24;5.90;;;3.10;;
62056;SDS011;48016;50.284;18.860;2023-04-01T16:31:00;6.60;;;3.20;;
62056;SDS011;48016;50.284;18.860;2023-04-01T16:38:52;7.70;;;3.60;;
62056;SDS011;48016;50.284;18.860;2023-04-01T16:47:22;8.40;;;4.30;;
62056;SDS011;48016;50.284;18.860;2023-04-01T16:50:13;8.10;;;4.60;;
62056;SDS011;48016;50.284;18.860;2023-04-01T16:52:48;8.20;;;4.40;;
62056;SDS011;48016;50.284;18.860;2023-04-01T16:55:35;10.00;;;5.40;;
62056;SDS011;48016;50.284;18.860;2023-04-01T16:58:07;8.00;;;5.00;;
62056;SDS011;48016;50.284;18.860;2023-04-01T17:03:42;9.20;;;5.50;;
62056;SDS011;48016;50.284;18.860;2023-04-01T17:11:25;7.80;;;5.20;;
62056;SDS011;48016;50.284;18.860;2023-04-01T17:19:42;9.00;;;5.30;;
62056;SDS011;48016;50.284;18.860;2023-04-01T17:30:13;8.40;;;5.10;;
62056;SDS011;48016;50.284;18.860;2023-04-01T17:32:52;7.40;;;4.90;;
62056;SDS011;48016;50.284;18.860;2023-04-01T17:45:42;9.40;;;5.80;;
62056;SDS011;48016;50.284;18.860;2023-04-01T17:57:00;12.90;;;7.10;;
62056;SDS011;48016;50.284;18.860;2023-04-01T17:59:37;12.40;;;6.80;;
62056;SDS011;48016;50.284;18.860;2023-04-01T18:04:52;14.70;;;10.30;;
62056;SDS011;48016;50.284;18.860;2023-04-01T18:18:36;19.90;;;12.40;;
62056;SDS011;48016;50.284;18.860;2023-04-01T18:24:14;19.60;;;12.00;;
62056;SDS011;48016;50.284;18.860;2023-04-01T18:29:35;18.10;;;10.80;;
62056;SDS011;48016;50.284;18.860;2023-04-01T18:32:18;19.40;;;10.40;;
62056;SDS011;48016;50.284;18.860;2023-04-01T18:34:53;19.90;;;11.20;;
62056;SDS011;48016;50.284;18.860;2023-04-01T18:37:25;15.70;;;9.80;;
62056;SDS011;48016;50.284;18.860;2023-04-01T18:39:53;18.50;;;11.20;;
62056;SDS011;48016;50.284;18.860;2023-04-01T18:45:20;19.50;;;11.00;;
62056;SDS011;48016;50.284;18.860;2023-04-01T18:47:57;18.80;;;10.70;;
62056;SDS011;48016;50.284;18.860;2023-04-01T18:50:51;16.10;;;10.20;;
62056;SDS011;48016;50.284;18.860;2023-04-01T18:53:24;15.20;;;10.60;;
62056;SDS011;48016;50.284;18.860;2023-04-01T18:55:55;15.10;;;10.10;;
62056;SDS011;48016;50.284;18.860;2023-04-01T19:03:45;12.40;;;7.90;;
62056;SDS011;48016;50.284;18.860;2023-04-01T19:06:33;12.40;;;7.30;;
62056;SDS011;48016;50.284;18.860;2023-04-01T19:09:15;13.10;;;8.40;;
62056;SDS011;48016;50.284;18.860;2023-04-01T19:11:50;11.00;;;7.40;;
62056;SDS011;48016;50.284;18.860;2023-04-01T19:14:23;12.20;;;8.00;;
62056;SDS011;48016;50.284;18.860;2023-04-01T19:20:07;12.40;;;7.80;;
62056;SDS011;48016;50.284;18.860;2023-04-01T19:23:31;11.30;;;7.00;;
62056;SDS011;48016;50.284;18.860;2023-04-01T19:25:43;10.80;;;7.80;;
62056;SDS011;48016;50.284;18.860;2023-04-01T19:44:52;14.50;;;9.30;;
62056;SDS011;48016;50.284;18.860;2023-04-01T19:50:04;12.70;;;9.20;;
62056;SDS011;48016;50.284;18.860;2023-04-01T19:52:47;14.40;;;8.90;;
62056;SDS011;48016;50.284;18.860;2023-04-01T19:58:05;14.10;;;8.90;;
62056;SDS011;48016;50.284;18.860;2023-04-01T20:00:56;13.80;;;9.20;;
62056;SDS011;48016;50.284;18.860;2023-04-01T20:06:10;16.20;;;11.20;;
62056;SDS011;48016;50.284;18.860;2023-04-01T20:09:05;16.70;;;10.20;;
62056;SDS011;48016;50.284;18.860;2023-04-01T20:11:55;17.00;;;10.90;;
62056;SDS011;48016;50.284;18.860;2023-04-01T20:17:19;16.30;;;10.70;;
62056;SDS011;48016;50.284;18.860;2023-04-01T20:25:15;17.90;;;11.20;;
62056;SDS011;48016;50.284;18.860;2023-04-01T20:27:58;17.70;;;11.20;;
62056;SDS011;48016;50.284;18.860;2023-04-01T20:52:23;17.70;;;11.50;;
62056;SDS011;48016;50.284;18.860;2023-04-01T21:06:29;17.70;;;11.60;;
62056;SDS011;48016;50.284;18.860;2023-04-01T21:14:34;19.70;;;13.00;;
62056;SDS011;48016;50.284;18.860;2023-04-01T21:17:08;21.90;;;13.60;;
62056;SDS011;48016;50.284;18.860;2023-04-01T21:22:50;25.70;;;16.30;;
62056;SDS011;48016;50.284;18.860;2023-04-01T21:25:34;39.80;;;24.90;;
62056;SDS011;48016;50.284;18.860;2023-04-01T21:28:10;51.60;;;29.60;;
62056;SDS011;48016;50.284;18.860;2023-04-01T21:33:59;71.00;;;39.80;;
62056;SDS011;48016;50.284;18.860;2023-04-01T22:00:47;49.30;;;29.80;;
62056;SDS011;48016;50.284;18.860;2023-04-01T22:06:24;48.20;;;29.20;;
62056;SDS011;48016;50.284;18.860;2023-04-01T22:08:54;49.10;;;29.50;;
62056;SDS011;48016;50.284;18.860;2023-04-01T22:11:43;51.30;;;31.20;;
62056;SDS011;48016;50.284;18.860;2023-04-01T22:14:21;47.90;;;29.60;;
62056;SDS011;48016;50.284;18.860;2023-04-01T22:22:23;51.50;;;30.60;;
62056;SDS011;48016;50.284;18.860;2023-04-01T22:27:50;47.70;;;31.30;;
62056;SDS011;48016;50.284;18.860;2023-04-01T22:30:27;46.90;;;28.40;;
62056;SDS011;48016;50.284;18.860;2023-04-01T22:33:07;44.70;;;28.50;;
62056;SDS011;48016;50.284;18.860;2023-04-01T22:38:23;43.60;;;27.60;;
62056;SDS011;48016;50.284;18.860;2023-04-01T22:41:34;45.50;;;27.90;;
62056;SDS011;48016;50.284;18.860;2023-04-01T22:44:01;43.50;;;27.80;;
62056;SDS011;48016;50.284;18.860;2023-04-01T22:49:32;41.10;;;25.20;;
62056;SDS011;48016;50.284;18.860;2023-04-01T22:52:18;40.60;;;26.60;;
62056;SDS011;48016;50.284;18.860;2023-04-01T22:54:48;41.40;;;27.20;;
62056;SDS011;48016;50.284;18.860;2023-04-01T23:00:22;44.20;;;26.10;;
62056;SDS011;48016;50.284;18.860;2023-04-01T23:06:00;40.90;;;23.60;;
62056;SDS011;48016;50.284;18.860;2023-04-01T23:08:36;41.40;;;25.80;;
62056;SDS011;48016;50.284;18.860;2023-04-01T23:11:24;42.20;;;25.40;;
62056;SDS011;48016;50.284;18.860;2023-04-01T23:16:45;38.80;;;24.10;;
62056;SDS011;48016;50.284;18.860;2023-04-01T23:24:43;39.40;;;24.20;;
62056;SDS011;48016;50.284;18.860;2023-04-01T23:27:31;40.00;;;24.30;;
62056;SDS011;48016;50.284;18.860;2023-04-01T23:30:03;36.00;;;23.40;;
62056;SDS011;48016;50.284;18.860;2023-04-01T23:32:29;42.40;;;25.20;;
62056;SDS011;48016;50.284;18.860;2023-04-01T23:34:56;42.40;;;26.40;;
62056;SDS011;48016;50.284;18.860;2023-04-01T23:37:25;45.70;;;26.40;;
62056;SDS011;48016;50.284;18.860;2023-04-01T23:39:53;48.10;;;29.50;;
62056;SDS011;48016;50.284;18.860;2023-04-01T23:42:22;49.70;;;29.90;;
62056;SDS011;48016;50.284;18.860;2023-04-01T23:44:53;52.80;;;29.40;;
62056;SDS011;48016;50.284;18.860;2023-04-01T23:47:42;51.80;;;31.20;;
62056;SDS011;48016;50.284;18.860;2023-04-01T23:50:16;49.20;;;31.20;;
62056;SDS011;48016;50.284;18.860;2023-04-01T23:52:52;53.50;;;31.40;;
62056;SDS011;48016;50.284;18.860;2023-04-01T23:55:28;46.90;;;29.20;;
